sensor_id;sensor_type;location;lat;lon;timestamp;pressure;altitude;pressure_sealevel;temperature;humidity
33454;BME280;39400;49.744;7.012;2023-01-28T00:00:35;96627.41;;;-0.13;100.00
33454;BME280;39400;49.744;7.012;2023-01-28T00:03:00;96633.72;;;-0.17;100.00
33454;BME280;39400;49.744;7.012;2023-01-28T00:05:29;96636.91;;;-0.15;100.00
33454;BME280;39400;49.744;7.012;2023-01-28T00:07:54;96624.34;;;-0.20;100.00
33454;BME280;39400;49.744;7.012;2023-01-28T00:10:19;96629.13;;;-0.17;100.00
33454;BME280;39400;49.744;7.012;2023-01-28T00:12:45;96622.09;;;-0.18;100.00
33454;BME280;39400;49.744;7.012;2023-01-28T00:15:10;96618.13;;;-0.20;100.00
33454;BME280;39400;49.744;7.012;2023-01-28T00:17:35;96627.31;;;-0.21;100.00
33454;BME280;39400;49.744;7.012;2023-01-28T00:20:03;96618.19;;;-0.34;100.00
33454;BME280;39400;49.744;7.012;2023-01-28T00:22:28;96630.09;;;-0.35;100.00
33454;BME280;39400;49.744;7.012;2023-01-28T00:24:57;96626.16;;;-0.29;100.00
33454;BME280;39400;49.744;7.012;2023-01-28T00:27:22;96632.19;;;-0.32;100.00
33454;BME280;39400;49.744;7.012;2023-01-28T00:29:48;96629.00;;;-0.34;100.00
33454;BME280;39400;49.744;7.012;2023-01-28T00:32:14;96629.00;;;-0.34;100.00
33454;BME280;39400;49.744;7.012;2023-01-28T00:34:39;96621.00;;;-0.39;100.00
33454;BME280;39400;49.744;7.012;2023-01-28T00:37:05;96622.59;;;-0.38;100.00
33454;BME280;39400;49.744;7.012;2023-01-28T00:39:34;96630.81;;;-0.43;100.00
33454;BME280;39400;49.744;7.012;2023-01-28T00:41:59;96633.03;;;-0.45;100.00
33454;BME280;39400;49.744;7.012;2023-01-28T00:44:25;96627.25;;;-0.53;100.00
33454;BME280;39400;49.744;7.012;2023-01-28T00:46:50;96633.03;;;-0.45;100.00
33454;BME280;39400;49.744;7.012;2023-01-28T00:49:15;96637.81;;;-0.42;100.00
33454;BME280;39400;49.744;7.012;2023-01-28T00:51:41;96629.91;;;-0.39;100.00
33454;BME280;39400;49.744;7.012;2023-01-28T00:54:06;96635.31;;;-0.39;100.00
33454;BME280;39400;49.744;7.012;2023-01-28T00:56:32;96632.41;;;-0.42;100.00
33454;BME280;39400;49.744;7.012;2023-01-28T00:58:57;96628.31;;;-0.40;100.00
33454;BME280;39400;49.744;7.012;2023-01-28T01:01:25;96632.13;;;-0.41;100.00
33454;BME280;39400;49.744;7.012;2023-01-28T01:03:51;96632.41;;;-0.42;100.00
33454;BME280;39400;49.744;7.012;2023-01-28T01:06:17;96626.59;;;-0.36;100.00
33454;BME280;39400;49.744;7.012;2023-01-28T01:08:45;96636.00;;;-0.33;100.00
33454;BME280;39400;49.744;7.012;2023-01-28T01:11:11;96626.91;;;-0.37;100.00
33454;BME280;39400;49.744;7.012;2023-01-28T01:13:37;96613.78;;;-0.30;100.00
33454;BME280;39400;49.744;7.012;2023-01-28T01:16:07;96625.00;;;-0.37;100.00
33454;BME280;39400;49.744;7.012;2023-01-28T01:18:33;96625.28;;;-0.38;100.00
33454;BME280;39400;49.744;7.012;2023-01-28T01:21:00;96625.78;;;-0.36;100.00
33454;BME280;39400;49.744;7.012;2023-01-28T01:23:26;96633.53;;;-0.43;100.00
33454;BME280;39400;49.744;7.012;2023-01-28T01:25:55;96628.00;;;-0.38;100.00
33454;BME280;39400;49.744;7.012;2023-01-28T01:28:21;96632.00;;;-0.36;100.00
33454;BME280;39400;49.744;7.012;2023-01-28T01:30:48;96643.59;;;-0.35;100.00
33454;BME280;39400;49.744;7.012;2023-01-28T01:33:14;96638.19;;;-0.35;100.00
33454;BME280;39400;49.744;7.012;2023-01-28T01:35:40;96640.22;;;-0.41;100.00
33454;BME280;39400;49.744;7.012;2023-01-28T01:38:06;96636.84;;;-0.46;100.00
33454;BME280;39400;49.744;7.012;2023-01-28T01:40:31;96650.53;;;-0.43;100.00
33454;BME280;39400;49.744;7.012;2023-01-28T01:42:59;96647.03;;;-0.43;100.00
33454;BME280;39400;49.744;7.012;2023-01-28T01:45:25;96649.59;;;-0.38;100.00
33454;BME280;39400;49.744;7.012;2023-01-28T01:48:12;96649.22;;;-0.45;100.00
33454;BME280;39400;49.744;7.012;2023-01-28T01:50:51;96645.25;;;-0.48;100.00
33454;BME280;39400;49.744;7.012;2023-01-28T01:53:19;96648.75;;;-0.47;100.00
33454;BME280;39400;49.744;7.012;2023-01-28T01:56:08;96646.66;;;-0.51;100.00
33454;BME280;39400;49.744;7.012;2023-01-28T01:58:39;96654.03;;;-0.42;100.00
33454;BME280;39400;49.744;7.012;2023-01-28T02:01:06;96642.63;;;-0.39;100.00
33454;BME280;39400;49.744;7.012;2023-01-28T02:03:56;96641.63;;;-0.43;100.00
33454;BME280;39400;49.744;7.012;2023-01-28T02:06:24;96647.03;;;-0.43;100.00
33454;BME280;39400;49.744;7.012;2023-01-28T02:08:53;96644.00;;;-0.42;100.00
33454;BME280;39400;49.744;7.012;2023-01-28T02:11:19;96651.25;;;-0.51;100.00
33454;BME280;39400;49.744;7.012;2023-01-28T02:13:48;96652.44;;;-0.43;100.00
33454;BME280;39400;49.744;7.012;2023-01-28T02:16:16;96648.84;;;-0.53;100.00
33454;BME280;39400;49.744;7.012;2023-01-28T02:18:43;96643.53;;;-0.44;100.00
33454;BME280;39400;49.744;7.012;2023-01-28T02:21:40;96641.63;;;-0.43;100.00
33454;BME280;39400;49.744;7.012;2023-01-28T02:27:19;96640.84;;;-0.44;100.00
33454;BME280;39400;49.744;7.012;2023-01-28T02:32:52;96645.25;;;-0.48;100.00
33454;BME280;39400;49.744;7.012;2023-01-28T02:35:29;96643.81;;;-0.45;100.00
33454;BME280;39400;49.744;7.012;2023-01-28T02:40:29;96634.28;;;-0.52;100.00
33454;BME280;39400;49.744;7.012;2023-01-28T02:42:56;96648.84;;;-0.53;100.00
33454;BME280;39400;49.744;7.012;2023-01-28T02:45:26;96646.28;;;-0.58;100.00
33454;BME280;39400;49.744;7.012;2023-01-28T02:47:53;96637.06;;;-0.57;100.00
33454;BME280;39400;49.744;7.012;2023-01-28T02:50:19;96642.84;;;-0.50;100.00
33454;BME280;39400;49.744;7.012;2023-01-28T02:53:10;96640.16;;;-0.50;100.00
33454;BME280;39400;49.744;7.012;2023-01-28T02:55:42;96646.06;;;-0.47;100.00
33454;BME280;39400;49.744;7.012;2023-01-28T02:58:21;96639.03;;;-0.49;100.00
33454;BME280;39400;49.744;7.012;2023-01-28T03:00:55;96641.88;;;-0.54;100.00
33454;BME280;39400;49.744;7.012;2023-01-28T03:03:26;96648.16;;;-0.44;100.00
33454;BME280;39400;49.744;7.012;2023-01-28T03:05:59;96647.03;;;-0.43;100.00
33454;BME280;39400;49.744;7.012;2023-01-28T03:08:34;96643.34;;;-0.47;100.00
33454;BME280;39400;49.744;7.012;2023-01-28T03:11:00;96645.88;;;-0.51;100.00
33454;BME280;39400;49.744;7.012;2023-01-28T03:13:27;96643.22;;;-0.42;100.00
33454;BME280;39400;49.744;7.012;2023-01-28T03:15:53;96642.84;;;-0.50;100.00
33454;BME280;39400;49.744;7.012;2023-01-28T03:18:22;96640.03;;;-0.44;100.00
33454;BME280;39400;49.744;7.012;2023-01-28T03:20:56;96641.94;;;-0.45;100.00
33454;BME280;39400;49.744;7.012;2023-01-28T03:23:31;96636.03;;;-0.47;100.00
33454;BME280;39400;49.744;7.012;2023-01-28T03:26:00;96648.84;;;-0.53;100.00
33454;BME280;39400;49.744;7.012;2023-01-28T03:28:28;96645.91;;;-0.65;100.00
33454;BME280;39400;49.744;7.012;2023-01-28T03:31:08;96651.31;;;-0.65;100.00
33454;BME280;39400;49.744;7.012;2023-01-28T03:33:46;96648.97;;;-0.58;100.00
33454;BME280;39400;49.744;7.012;2023-01-28T03:36:12;96655.00;;;-0.61;100.00
33454;BME280;39400;49.744;7.012;2023-01-28T03:38:40;96640.97;;;-0.63;100.00
33454;BME280;39400;49.744;7.012;2023-01-28T03:41:06;96649.28;;;-0.59;100.00
33454;BME280;39400;49.744;7.012;2023-01-28T03:43:32;96655.91;;;-0.65;100.00
33454;BME280;39400;49.744;7.012;2023-01-28T03:45:57;96661.50;;;-0.62;100.00
33454;BME280;39400;49.744;7.012;2023-01-28T03:48:24;96667.91;;;-0.72;100.00
33454;BME280;39400;49.744;7.012;2023-01-28T03:50:51;96664.91;;;-0.70;100.00
33454;BME280;39400;49.744;7.012;2023-01-28T03:53:17;96677.94;;;-0.72;100.00
33454;BME280;39400;49.744;7.012;2023-01-28T03:55:46;96680.13;;;-0.74;100.00
33454;BME280;39400;49.744;7.012;2023-01-28T03:58:13;96681.13;;;-0.84;100.00
33454;BME280;39400;49.744;7.012;2023-01-28T04:00:38;96680.84;;;-0.82;100.00
33454;BME280;39400;49.744;7.012;2023-01-28T04:03:04;96682.16;;;-0.93;100.00
33454;BME280;39400;49.744;7.012;2023-01-28T04:05:30;96685.72;;;-0.84;100.00
33454;BME280;39400;49.744;7.012;2023-01-28T04:07:57;96688.75;;;-0.86;100.00
33454;BME280;39400;49.744;7.012;2023-01-28T04:10:49;96689.53;;;-0.85;100.00
33454;BME280;39400;49.744;7.012;2023-01-28T04:13:19;96693.81;;;-0.84;100.00
33454;BME280;39400;49.744;7.012;2023-01-28T04:15:45;96692.22;;;-0.85;100.00
33454;BME280;39400;49.744;7.012;2023-01-28T04:18:13;96692.22;;;-0.85;100.00
33454;BME280;39400;49.744;7.012;2023-01-28T04:20:39;96695.72;;;-0.85;100.00
33454;BME280;39400;49.744;7.012;2023-01-28T04:23:06;96689.41;;;-0.80;100.00
33454;BME280;39400;49.744;7.012;2023-01-28T04:25:33;96689.53;;;-0.85;100.00
33454;BME280;39400;49.744;7.012;2023-01-28T04:27:59;96683.75;;;-0.92;100.00
33454;BME280;39400;49.744;7.012;2023-01-28T04:30:27;96695.22;;;-0.87;100.00
33454;BME280;39400;49.744;7.012;2023-01-28T04:33:15;96697.63;;;-0.85;100.00
33454;BME280;39400;49.744;7.012;2023-01-28T04:35:51;96698.31;;;-0.80;100.00
33454;BME280;39400;49.744;7.012;2023-01-28T04:38:30;96699.13;;;-0.79;100.00
33454;BME280;39400;49.744;7.012;2023-01-28T04:41:04;96696.13;;;-0.78;100.00
33454;BME280;39400;49.744;7.012;2023-01-28T04:43:32;96693.72;;;-0.79;100.00
33454;BME280;39400;49.744;7.012;2023-01-28T04:46:16;96693.94;;;-0.76;100.00
33454;BME280;39400;49.744;7.012;2023-01-28T04:48:51;96705.13;;;-0.82;100.00
33454;BME280;39400;49.744;7.012;2023-01-28T04:51:32;96695.94;;;-0.81;100.00
33454;BME280;39400;49.744;7.012;2023-01-28T04:54:26;96708.91;;;-0.83;100.00
33454;BME280;39400;49.744;7.012;2023-01-28T04:56:55;96705.13;;;-0.82;100.00
33454;BME280;39400;49.744;7.012;2023-01-28T04:59:21;96708.31;;;-0.80;100.00
33454;BME280;39400;49.744;7.012;2023-01-28T05:01:46;96709.09;;;-0.80;100.00
33454;BME280;39400;49.744;7.012;2023-01-28T05:04:12;96710.72;;;-0.79;100.00
33454;BME280;39400;49.744;7.012;2023-01-28T05:06:38;96711.72;;;-0.75;100.00
33454;BME280;39400;49.744;7.012;2023-01-28T05:09:20;96715.22;;;-0.74;100.00
33454;BME280;39400;49.744;7.012;2023-01-28T05:11:47;96716.31;;;-0.75;100.00
33454;BME280;39400;49.744;7.012;2023-01-28T05:14:13;96717.31;;;-0.71;100.00
33454;BME280;39400;49.744;7.012;2023-01-28T05:16:44;96728.44;;;-0.73;100.00
33454;BME280;39400;49.744;7.012;2023-01-28T05:19:10;96725.03;;;-0.78;100.00
33454;BME280;39400;49.744;7.012;2023-01-28T05:21:39;96719.41;;;-0.68;100.00
33454;BME280;39400;49.744;7.012;2023-01-28T05:24:13;96724.31;;;-0.70;100.00
33454;BME280;39400;49.744;7.012;2023-01-28T05:26:38;96729.72;;;-0.70;100.00
33454;BME280;39400;49.744;7.012;2023-01-28T05:29:04;96738.72;;;-0.61;100.00
33454;BME280;39400;49.744;7.012;2023-01-28T05:31:29;96725.72;;;-0.73;100.00
33454;BME280;39400;49.744;7.012;2023-01-28T05:33:56;96729.22;;;-0.72;100.00
33454;BME280;39400;49.744;7.012;2023-01-28T05:36:22;96735.09;;;-0.70;100.00
33454;BME280;39400;49.744;7.012;2023-01-28T05:38:47;96730.41;;;-0.64;100.00
33454;BME280;39400;49.744;7.012;2023-01-28T05:41:13;96736.72;;;-0.55;100.00
33454;BME280;39400;49.744;7.012;2023-01-28T05:43:40;96734.50;;;-0.67;100.00
33454;BME280;39400;49.744;7.012;2023-01-28T05:46:24;96731.72;;;-0.62;100.00
33454;BME280;39400;49.744;7.012;2023-01-28T05:49:01;96734.91;;;-0.60;100.00
33454;BME280;39400;49.744;7.012;2023-01-28T05:51:47;96740.69;;;-0.53;100.00
33454;BME280;39400;49.744;7.012;2023-01-28T05:54:16;96736.91;;;-0.52;100.00
33454;BME280;39400;49.744;7.012;2023-01-28T05:56:42;96740.59;;;-0.47;100.00
33454;BME280;39400;49.744;7.012;2023-01-28T05:59:10;96747.72;;;-0.52;100.00
33454;BME280;39400;49.744;7.012;2023-01-28T06:01:37;96743.72;;;-0.68;100.00
33454;BME280;39400;49.744;7.012;2023-01-28T06:04:02;96741.09;;;-0.59;100.00
33454;BME280;39400;49.744;7.012;2023-01-28T06:06:29;96750.09;;;-0.64;100.00
33454;BME280;39400;49.744;7.012;2023-01-28T06:08:54;96750.50;;;-0.57;100.00
33454;BME280;39400;49.744;7.012;2023-01-28T06:11:25;96753.91;;;-0.51;100.00
33454;BME280;39400;49.744;7.012;2023-01-28T06:13:53;96754.13;;;-0.61;100.00
33454;BME280;39400;49.744;7.012;2023-01-28T06:16:30;96757.31;;;-0.73;100.00
33454;BME280;39400;49.744;7.012;2023-01-28T06:19:09;96766.91;;;-0.67;100.00
33454;BME280;39400;49.744;7.012;2023-01-28T06:21:34;96770.59;;;-0.63;100.00
33454;BME280;39400;49.744;7.012;2023-01-28T06:24:00;96765.72;;;-0.61;100.00
33454;BME280;39400;49.744;7.012;2023-01-28T06:26:25;96771.19;;;-0.66;100.00
33454;BME280;39400;49.744;7.012;2023-01-28T06:28:51;96769.72;;;-0.72;100.00
33454;BME280;39400;49.744;7.012;2023-01-28T06:31:16;96772.44;;;-0.72;100.00
33454;BME280;39400;49.744;7.012;2023-01-28T06:33:41;96770.91;;;-0.78;100.00
33454;BME280;39400;49.744;7.012;2023-01-28T06:36:07;96783.31;;;-0.77;100.00
33454;BME280;39400;49.744;7.012;2023-01-28T06:38:32;96783.72;;;-0.84;100.00
33454;BME280;39400;49.744;7.012;2023-01-28T06:40:58;96781.53;;;-0.68;100.00
33454;BME280;39400;49.744;7.012;2023-01-28T06:43:23;96780.53;;;-0.72;100.00
33454;BME280;39400;49.744;7.012;2023-01-28T06:45:48;96772.41;;;-1.00;100.00
33454;BME280;39400;49.744;7.012;2023-01-28T06:48:14;96790.59;;;-0.91;100.00
33454;BME280;39400;49.744;7.012;2023-01-28T06:50:39;96778.31;;;-0.98;100.00
33454;BME280;39400;49.744;7.012;2023-01-28T06:53:04;96793.63;;;-0.93;100.00
33454;BME280;39400;49.744;7.012;2023-01-28T06:55:30;96782.50;;;-1.05;100.00
33454;BME280;39400;49.744;7.012;2023-01-28T06:57:55;96777.09;;;-1.05;100.00
33454;BME280;39400;49.744;7.012;2023-01-28T07:00:20;96788.69;;;-1.05;100.00
33454;BME280;39400;49.744;7.012;2023-01-28T07:02:45;96788.28;;;-0.98;100.00
33454;BME280;39400;49.744;7.012;2023-01-28T07:05:11;96784.81;;;-0.99;100.00
33454;BME280;39400;49.744;7.012;2023-01-28T07:07:36;96784.91;;;-1.04;100.00
33454;BME280;39400;49.744;7.012;2023-01-28T07:10:02;96780.50;;;-1.00;100.00
33454;BME280;39400;49.744;7.012;2023-01-28T07:12:27;96786.88;;;-1.09;100.00
33454;BME280;39400;49.744;7.012;2023-01-28T07:14:52;96790.72;;;-0.97;100.00
33454;BME280;39400;49.744;7.012;2023-01-28T07:17:19;96790.31;;;-1.04;100.00
33454;BME280;39400;49.744;7.012;2023-01-28T07:19:44;96791.50;;;-1.10;100.00
33454;BME280;39400;49.744;7.012;2023-01-28T07:22:10;96786.28;;;-1.20;100.00
33454;BME280;39400;49.744;7.012;2023-01-28T07:24:35;96798.47;;;-1.09;100.00
33454;BME280;39400;49.744;7.012;2023-01-28T07:27:00;96792.50;;;-1.06;100.00
33454;BME280;39400;49.744;7.012;2023-01-28T07:29:26;96802.47;;;-1.20;100.00
33454;BME280;39400;49.744;7.012;2023-01-28T07:31:51;96805.84;;;-1.14;100.00
33454;BME280;39400;49.744;7.012;2023-01-28T07:34:16;96813.66;;;-1.13;100.00
33454;BME280;39400;49.744;7.012;2023-01-28T07:36:42;96806.00;;;-1.06;100.00
33454;BME280;39400;49.744;7.012;2023-01-28T07:39:07;96816.09;;;-0.98;100.00
33454;BME280;39400;49.744;7.012;2023-01-28T07:41:32;96814.31;;;-0.88;100.00
33454;BME280;39400;49.744;7.012;2023-01-28T07:44:03;96814.00;;;-0.87;100.00
33454;BME280;39400;49.744;7.012;2023-01-28T07:46:29;96804.69;;;-0.94;100.00
33454;BME280;39400;49.744;7.012;2023-01-28T07:48:54;96810.59;;;-0.92;100.00
33454;BME280;39400;49.744;7.012;2023-01-28T07:51:19;96809.81;;;-0.93;100.00
33454;BME280;39400;49.744;7.012;2023-01-28T07:53:45;96810.47;;;-1.01;100.00
33454;BME280;39400;49.744;7.012;2023-01-28T07:56:10;96811.50;;;-0.83;100.00
33454;BME280;39400;49.744;7.012;2023-01-28T07:58:36;96818.13;;;-0.89;100.00
33454;BME280;39400;49.744;7.012;2023-01-28T08:01:01;96808.31;;;-0.85;100.00
33454;BME280;39400;49.744;7.012;2023-01-28T08:03:27;96817.34;;;-0.76;100.00
33454;BME280;39400;49.744;7.012;2023-01-28T08:05:54;96810.72;;;-0.70;100.00
33454;BME280;39400;49.744;7.012;2023-01-28T08:08:21;96807.53;;;-0.72;100.00
33454;BME280;39400;49.744;7.012;2023-01-28T08:10:47;96810.72;;;-0.70;100.00
33454;BME280;39400;49.744;7.012;2023-01-28T08:13:13;96810.31;;;-0.63;100.00
33454;BME280;39400;49.744;7.012;2023-01-28T08:15:39;96810.13;;;-0.67;100.00
33454;BME280;39400;49.744;7.012;2023-01-28T08:18:06;96804.91;;;-0.50;100.00
33454;BME280;39400;49.744;7.012;2023-01-28T08:20:33;96811.81;;;-0.57;100.00
33454;BME280;39400;49.744;7.012;2023-01-28T08:25:38;96811.63;;;-0.47;100.00
33454;BME280;39400;49.744;7.012;2023-01-28T08:28:04;96816.81;;;-0.51;100.00
33454;BME280;39400;49.744;7.012;2023-01-28T08:30:30;96822.13;;;-0.45;100.00
33454;BME280;39400;49.744;7.012;2023-01-28T08:32:58;96814.91;;;-0.36;100.00
33454;BME280;39400;49.744;7.012;2023-01-28T08:35:25;96822.94;;;-0.31;100.00
33454;BME280;39400;49.744;7.012;2023-01-28T08:37:50;96818.31;;;-0.31;100.00
33454;BME280;39400;49.744;7.012;2023-01-28T08:40:15;96814.81;;;-0.31;100.00
33454;BME280;39400;49.744;7.012;2023-01-28T08:42:52;96823.31;;;-0.24;100.00
33454;BME280;39400;49.744;7.012;2023-01-28T08:45:18;96813.50;;;-0.34;100.00
33454;BME280;39400;49.744;7.012;2023-01-28T08:47:52;96817.22;;;-0.30;100.00
33454;BME280;39400;49.744;7.012;2023-01-28T08:50:19;96822.69;;;-0.35;100.00
33454;BME280;39400;49.744;7.012;2023-01-28T08:52:46;96829.31;;;-0.27;100.00
33454;BME280;39400;49.744;7.012;2023-01-28T08:55:12;96829.72;;;-0.20;100.00
33454;BME280;39400;49.744;7.012;2023-01-28T08:57:38;96832.66;;;0.06;100.00
33454;BME280;39400;49.744;7.012;2023-01-28T09:00:04;96839.81;;;-0.12;100.00
33454;BME280;39400;49.744;7.012;2023-01-28T09:02:30;96828.91;;;-0.07;100.00
33454;BME280;39400;49.744;7.012;2023-01-28T09:04:56;96835.56;;;-0.04;100.00
33454;BME280;39400;49.744;7.012;2023-01-28T09:07:24;96835.25;;;0.11;100.00
33454;BME280;39400;49.744;7.012;2023-01-28T09:09:55;96831.25;;;0.09;100.00
33454;BME280;39400;49.744;7.012;2023-01-28T09:12:20;96832.78;;;0.01;100.00
33454;BME280;39400;49.744;7.012;2023-01-28T09:14:46;96832.78;;;0.01;100.00
33454;BME280;39400;49.744;7.012;2023-01-28T09:17:11;96830.03;;;0.15;100.00
33454;BME280;39400;49.744;7.012;2023-01-28T09:19:36;96841.25;;;0.22;100.00
33454;BME280;39400;49.744;7.012;2023-01-28T09:22:03;96835.59;;;0.32;100.00
33454;BME280;39400;49.744;7.012;2023-01-28T09:24:28;96838.72;;;0.26;100.00
33454;BME280;39400;49.744;7.012;2023-01-28T09:26:54;96833.00;;;0.27;100.00
33454;BME280;39400;49.744;7.012;2023-01-28T09:29:19;96841.00;;;0.32;100.00
33454;BME280;39400;49.744;7.012;2023-01-28T09:31:44;96843.72;;;0.55;100.00
33454;BME280;39400;49.744;7.012;2023-01-28T09:34:10;96847.50;;;0.67;100.00
33454;BME280;39400;49.744;7.012;2023-01-28T09:36:35;96855.41;;;0.86;100.00
33454;BME280;39400;49.744;7.012;2023-01-28T09:39:01;96853.31;;;0.61;100.00
33454;BME280;39400;49.744;7.012;2023-01-28T09:41:29;96859.00;;;0.73;100.00
33454;BME280;39400;49.744;7.012;2023-01-28T09:44:18;96854.31;;;0.65;100.00
33454;BME280;39400;49.744;7.012;2023-01-28T09:46:47;96874.75;;;0.49;100.00
33454;BME280;39400;49.744;7.012;2023-01-28T09:49:20;96870.97;;;0.58;100.00
33454;BME280;39400;49.744;7.012;2023-01-28T09:51:53;96865.22;;;0.37;100.00
33454;BME280;39400;49.744;7.012;2023-01-28T09:54:34;96865.84;;;0.34;100.00
33454;BME280;39400;49.744;7.012;2023-01-28T09:57:08;96865.69;;;0.17;100.00
33454;BME280;39400;49.744;7.012;2023-01-28T09:59:35;96866.28;;;0.14;100.00
33454;BME280;39400;49.744;7.012;2023-01-28T10:04:56;96867.72;;;-0.03;100.00
33454;BME280;39400;49.744;7.012;2023-01-28T10:07:32;96864.91;;;0.03;100.00
33454;BME280;39400;49.744;7.012;2023-01-28T10:10:07;96873.31;;;0.15;100.00
33454;BME280;39400;49.744;7.012;2023-01-28T10:15:29;96874.28;;;0.19;100.00
33454;BME280;39400;49.744;7.012;2023-01-28T10:18:11;96868.66;;;0.29;100.00
33454;BME280;39400;49.744;7.012;2023-01-28T10:20:48;96871.94;;;0.40;100.00
33454;BME280;39400;49.744;7.012;2023-01-28T10:23:24;96879.22;;;0.53;100.00
33454;BME280;39400;49.744;7.012;2023-01-28T10:25:50;96885.63;;;0.57;100.00
33454;BME280;39400;49.744;7.012;2023-01-28T10:28:22;96881.59;;;0.55;100.00
33454;BME280;39400;49.744;7.012;2023-01-28T10:30:48;96888.03;;;0.45;100.00
33454;BME280;39400;49.744;7.012;2023-01-28T10:33:22;96886.66;;;0.47;100.00
33454;BME280;39400;49.744;7.012;2023-01-28T10:35:56;96882.84;;;0.49;100.00
33454;BME280;39400;49.744;7.012;2023-01-28T10:38:23;96893.91;;;0.38;100.00
33454;BME280;39400;49.744;7.012;2023-01-28T10:40:49;96887.25;;;0.44;100.00
33454;BME280;39400;49.744;7.012;2023-01-28T10:43:18;96892.66;;;0.44;100.00
33454;BME280;39400;49.744;7.012;2023-01-28T10:46:05;96894.47;;;0.49;100.00
33454;BME280;39400;49.744;7.012;2023-01-28T10:48:33;96883.22;;;0.56;100.00
33454;BME280;39400;49.744;7.012;2023-01-28T10:51:00;96877.38;;;0.62;100.00
33454;BME280;39400;49.744;7.012;2023-01-28T10:53:41;96889.38;;;0.70;100.00
33454;BME280;39400;49.744;7.012;2023-01-28T10:56:13;96881.31;;;0.79;100.00
33454;BME280;39400;49.744;7.012;2023-01-28T10:58:56;96880.28;;;0.88;100.00
33454;BME280;39400;49.744;7.012;2023-01-28T11:01:24;96894.81;;;0.70;100.00
33454;BME280;39400;49.744;7.012;2023-01-28T11:03:57;96884.78;;;0.70;100.00
33454;BME280;39400;49.744;7.012;2023-01-28T11:06:27;96879.13;;;0.81;100.00
33454;BME280;39400;49.744;7.012;2023-01-28T11:08:53;96885.16;;;0.78;100.00
33454;BME280;39400;49.744;7.012;2023-01-28T11:11:25;96874.75;;;0.71;100.00
33454;BME280;39400;49.744;7.012;2023-01-28T11:13:52;96887.03;;;0.55;100.00
33454;BME280;39400;49.744;7.012;2023-01-28T11:16:18;96889.09;;;0.35;100.00
33454;BME280;39400;49.744;7.012;2023-01-28T11:18:52;96890.47;;;0.46;100.00
33454;BME280;39400;49.744;7.012;2023-01-28T11:21:21;96886.41;;;0.58;100.00
33454;BME280;39400;49.744;7.012;2023-01-28T11:24:01;96886.63;;;0.25;100.00
33454;BME280;39400;49.744;7.012;2023-01-28T11:26:36;96887.97;;;0.36;100.00
33454;BME280;39400;49.744;7.012;2023-01-28T11:29:03;96879.50;;;0.29;100.00
33454;BME280;39400;49.744;7.012;2023-01-28T11:31:37;96882.63;;;0.09;100.00
33454;BME280;39400;49.744;7.012;2023-01-28T11:34:05;96876.91;;;-0.04;100.00
33454;BME280;39400;49.744;7.012;2023-01-28T11:36:32;96883.94;;;-0.03;100.00
33454;BME280;39400;49.744;7.012;2023-01-28T11:39:16;96884.34;;;0.05;100.00
33454;BME280;39400;49.744;7.012;2023-01-28T11:41:45;96871.31;;;-0.07;100.00
33454;BME280;39400;49.744;7.012;2023-01-28T11:49:43;96866.94;;;-0.03;100.00
33454;BME280;39400;49.744;7.012;2023-01-28T11:55:10;96875.69;;;0.16;100.00
33454;BME280;39400;49.744;7.012;2023-01-28T12:06:25;96865.41;;;0.05;100.00
33454;BME280;39400;49.744;7.012;2023-01-28T12:11:50;96872.97;;;-0.20;100.00
33454;BME280;39400;49.744;7.012;2023-01-28T12:14:52;96869.53;;;-0.26;100.00
33454;BME280;39400;49.744;7.012;2023-01-28T12:23:06;96851.50;;;-0.03;100.00
33454;BME280;39400;49.744;7.012;2023-01-28T12:31:32;96864.72;;;-0.15;100.00
33454;BME280;39400;49.744;7.012;2023-01-28T12:43:04;96858.94;;;-0.22;100.00
33454;BME280;39400;49.744;7.012;2023-01-28T12:45:37;96852.53;;;-0.26;100.00
33454;BME280;39400;49.744;7.012;2023-01-28T12:48:08;96855.34;;;-0.45;100.00
33454;BME280;39400;49.744;7.012;2023-01-28T12:53:27;96863.16;;;-0.43;100.00
33454;BME280;39400;49.744;7.012;2023-01-28T12:58:49;96851.53;;;-0.58;100.00
33454;BME280;39400;49.744;7.012;2023-01-28T13:01:59;96841.00;;;-0.73;100.00
33454;BME280;39400;49.744;7.012;2023-01-28T13:04:33;96843.91;;;-0.69;100.00
33454;BME280;39400;49.744;7.012;2023-01-28T13:07:06;96848.91;;;-0.63;100.00
33454;BME280;39400;49.744;7.012;2023-01-28T13:09:34;96846.72;;;-0.75;100.00
33454;BME280;39400;49.744;7.012;2023-01-28T13:12:01;96850.72;;;-0.86;100.00
33454;BME280;39400;49.744;7.012;2023-01-28T13:14:31;96852.91;;;-0.88;100.00
33454;BME280;39400;49.744;7.012;2023-01-28T13:17:10;96848.88;;;-0.90;100.00
33454;BME280;39400;49.744;7.012;2023-01-28T13:19:39;96848.88;;;-0.90;100.00
33454;BME280;39400;49.744;7.012;2023-01-28T13:22:34;96857.69;;;-0.99;100.00
33454;BME280;39400;49.744;7.012;2023-01-28T13:27:37;96863.06;;;-0.99;100.00
33454;BME280;39400;49.744;7.012;2023-01-28T13:30:25;96865.56;;;-1.02;100.00
33454;BME280;39400;49.744;7.012;2023-01-28T13:33:02;96863.06;;;-0.99;100.00
33454;BME280;39400;49.744;7.012;2023-01-28T13:35:36;96866.69;;;-1.03;100.00
33454;BME280;39400;49.744;7.012;2023-01-28T13:38:20;96878.25;;;-1.03;100.00
33454;BME280;39400;49.744;7.012;2023-01-28T13:40:58;96878.69;;;-0.96;100.00
33454;BME280;39400;49.744;7.012;2023-01-28T13:43:27;96865.69;;;-0.93;100.00
33454;BME280;39400;49.744;7.012;2023-01-28T13:46:08;96878.56;;;-0.90;100.00
33454;BME280;39400;49.744;7.012;2023-01-28T13:48:48;96875.88;;;-0.90;100.00
33454;BME280;39400;49.744;7.012;2023-01-28T13:51:23;96886.09;;;-0.87;100.00
33454;BME280;39400;49.744;7.012;2023-01-28T13:54:09;96897.88;;;-0.83;100.00
33454;BME280;39400;49.744;7.012;2023-01-28T13:59:39;96890.22;;;-0.76;100.00
33454;BME280;39400;49.744;7.012;2023-01-28T14:05:21;96894.34;;;-0.65;100.00
33454;BME280;39400;49.744;7.012;2023-01-28T14:10:57;96902.34;;;-0.60;100.00
33454;BME280;39400;49.744;7.012;2023-01-28T14:16:06;96892.28;;;-0.87;100.00
33454;BME280;39400;49.744;7.012;2023-01-28T14:18:42;96901.28;;;-0.91;100.00
33454;BME280;39400;49.744;7.012;2023-01-28T14:21:11;96907.09;;;-0.84;100.00
33454;BME280;39400;49.744;7.012;2023-01-28T14:23:43;96906.50;;;-0.81;100.00